sensor_id;sensor_type;location;lat;lon;timestamp;pressure;altitude;pressure_sealevel;temperature;humidity
15646;BME280;7922;43.622;1.476;2023-05-24T00:00:25;100103.38;;;16.14;88.50
15646;BME280;7922;43.622;1.476;2023-05-24T00:02:50;99968.44;;;15.37;88.37
15646;BME280;7922;43.622;1.476;2023-05-24T00:05:16;100090.03;;;16.14;88.72
15646;BME280;7922;43.622;1.476;2023-05-24T00:07:41;100028.25;;;15.77;88.84
15646;BME280;7922;43.622;1.476;2023-05-24T00:10:07;100090.91;;;16.00;88.92
15646;BME280;7922;43.622;1.476;2023-05-24T00:12:32;100057.50;;;15.79;89.63
15646;BME280;7922;43.622;1.476;2023-05-24T00:14:58;100052.16;;;15.79;89.16
15646;BME280;7922;43.622;1.476;2023-05-24T00:17:23;100073.72;;;15.90;89.77
15646;BME280;7922;43.622;1.476;2023-05-24T00:19:49;100084.41;;;16.04;89.78
15646;BME280;7922;43.622;1.476;2023-05-24T00:22:14;100106.06;;;16.14;89.98
15646;BME280;7922;43.622;1.476;2023-05-24T00:24:40;100078.19;;;16.04;89.48
15646;BME280;7922;43.622;1.476;2023-05-24T00:27:05;100106.69;;;16.32;89.32
15646;BME280;7922;43.622;1.476;2023-05-24T00:29:31;100023.19;;;15.87;89.60
15646;BME280;7922;43.622;1.476;2023-05-24T00:31:57;100094.09;;;16.34;89.73
15646;BME280;7922;43.622;1.476;2023-05-24T00:34:22;100072.44;;;16.24;89.63
15646;BME280;7922;43.622;1.476;2023-05-24T00:36:47;100024.22;;;15.99;89.58
15646;BME280;7922;43.622;1.476;2023-05-24T00:39:13;99959.84;;;15.75;89.82
15646;BME280;7922;43.622;1.476;2023-05-24T00:41:38;100052.31;;;16.19;90.15
15646;BME280;7922;43.622;1.476;2023-05-24T00:44:03;100027.25;;;16.07;90.92
15646;BME280;7922;43.622;1.476;2023-05-24T00:46:31;100073.66;;;16.33;91.02
15646;BME280;7922;43.622;1.476;2023-05-24T00:48:56;100010.28;;;15.94;91.45
15646;BME280;7922;43.622;1.476;2023-05-24T00:51:23;100071.94;;;16.32;92.16
15646;BME280;7922;43.622;1.476;2023-05-24T00:53:49;100057.56;;;16.20;92.60
15646;BME280;7922;43.622;1.476;2023-05-24T00:56:15;100056.78;;;16.18;92.53
15646;BME280;7922;43.622;1.476;2023-05-24T00:58:42;100060.25;;;16.20;92.85
15646;BME280;7922;43.622;1.476;2023-05-24T01:01:07;99936.66;;;15.61;92.97
15646;BME280;7922;43.622;1.476;2023-05-24T01:03:33;100065.97;;;16.41;92.81
15646;BME280;7922;43.622;1.476;2023-05-24T01:06:02;100025.56;;;16.19;93.00
15646;BME280;7922;43.622;1.476;2023-05-24T01:20:18;100107.84;;;16.69;92.49
15646;BME280;7922;43.622;1.476;2023-05-24T01:25:02;100097.31;;;16.80;92.07
15646;BME280;7922;43.622;1.476;2023-05-24T01:27:29;99998.34;;;16.26;91.43
15646;BME280;7922;43.622;1.476;2023-05-24T01:29:55;100054.09;;;16.59;91.78
15646;BME280;7922;43.622;1.476;2023-05-24T01:32:22;100041.22;;;16.52;91.61
15646;BME280;7922;43.622;1.476;2023-05-24T01:34:47;100052.81;;;16.65;91.43
15646;BME280;7922;43.622;1.476;2023-05-24T01:37:13;100039.97;;;16.57;91.38
15646;BME280;7922;43.622;1.476;2023-05-24T01:39:38;100025.75;;;16.57;90.82
15646;BME280;7922;43.622;1.476;2023-05-24T01:42:35;100074.84;;;16.83;90.49
15646;BME280;7922;43.622;1.476;2023-05-24T01:45:10;100024.75;;;16.45;90.49
15646;BME280;7922;43.622;1.476;2023-05-24T01:48:03;100076.88;;;16.79;89.86
15646;BME280;7922;43.622;1.476;2023-05-24T01:50:36;99948.22;;;16.03;89.94
15646;BME280;7922;43.622;1.476;2023-05-24T01:53:06;100075.44;;;16.74;89.88
15646;BME280;7922;43.622;1.476;2023-05-24T01:55:34;99942.06;;;15.88;90.33
15646;BME280;7922;43.622;1.476;2023-05-24T01:58:04;99959.31;;;15.97;90.00
15646;BME280;7922;43.622;1.476;2023-05-24T02:00:31;100009.91;;;16.27;89.89
15646;BME280;7922;43.622;1.476;2023-05-24T02:02:57;100040.84;;;16.31;90.85
15646;BME280;7922;43.622;1.476;2023-05-24T02:05:23;99965.72;;;15.94;90.63
15646;BME280;7922;43.622;1.476;2023-05-24T02:07:48;100095.22;;;16.71;90.81
15646;BME280;7922;43.622;1.476;2023-05-24T02:10:14;100081.25;;;16.53;90.57
15646;BME280;7922;43.622;1.476;2023-05-24T02:12:39;99987.25;;;16.05;90.58
15646;BME280;7922;43.622;1.476;2023-05-24T02:15:04;100043.00;;;16.39;90.67
15646;BME280;7922;43.622;1.476;2023-05-24T02:17:30;100043.75;;;16.41;90.49
15646;BME280;7922;43.622;1.476;2023-05-24T02:19:55;100064.53;;;16.50;90.73
15646;BME280;7922;43.622;1.476;2023-05-24T02:22:20;100033.16;;;16.39;90.42
15646;BME280;7922;43.622;1.476;2023-05-24T02:24:46;99962.09;;;15.95;90.13
15646;BME280;7922;43.622;1.476;2023-05-24T02:27:11;100029.38;;;16.29;90.39
15646;BME280;7922;43.622;1.476;2023-05-24T02:29:36;100011.81;;;16.25;90.48
15646;BME280;7922;43.622;1.476;2023-05-24T02:32:02;99948.66;;;15.82;90.63
15646;BME280;7922;43.622;1.476;2023-05-24T02:34:27;99966.00;;;15.89;90.49
15646;BME280;7922;43.622;1.476;2023-05-24T02:36:52;100075.59;;;16.58;90.24
15646;BME280;7922;43.622;1.476;2023-05-24T02:39:17;99967.75;;;15.91;90.68
15646;BME280;7922;43.622;1.476;2023-05-24T02:41:43;100072.66;;;16.48;90.88
15646;BME280;7922;43.622;1.476;2023-05-24T02:44:08;100046.25;;;16.29;90.73
15646;BME280;7922;43.622;1.476;2023-05-24T02:46:33;100059.78;;;16.41;90.76
15646;BME280;7922;43.622;1.476;2023-05-24T02:48:58;100090.78;;;16.57;90.70
15646;BME280;7922;43.622;1.476;2023-05-24T02:51:24;100040.72;;;16.32;90.62
15646;BME280;7922;43.622;1.476;2023-05-24T02:53:49;99987.47;;;16.02;90.71
15646;BME280;7922;43.622;1.476;2023-05-24T02:56:15;100063.03;;;16.46;90.79
15646;BME280;7922;43.622;1.476;2023-05-24T02:58:40;99955.50;;;15.86;90.91
15646;BME280;7922;43.622;1.476;2023-05-24T03:01:06;100062.72;;;16.50;91.00
15646;BME280;7922;43.622;1.476;2023-05-24T03:03:32;100044.44;;;16.30;91.23
15646;BME280;7922;43.622;1.476;2023-05-24T03:05:57;100037.88;;;16.21;91.71
15646;BME280;7922;43.622;1.476;2023-05-24T03:08:22;99965.06;;;15.91;91.81
15646;BME280;7922;43.622;1.476;2023-05-24T03:10:47;99946.41;;;15.76;91.80
15646;BME280;7922;43.622;1.476;2023-05-24T03:13:13;99969.00;;;15.71;92.05
15646;BME280;7922;43.622;1.476;2023-05-24T03:15:38;99971.97;;;15.80;91.95
15646;BME280;7922;43.622;1.476;2023-05-24T03:18:03;100062.59;;;16.25;92.19
15646;BME280;7922;43.622;1.476;2023-05-24T03:20:28;100088.63;;;16.50;92.25
15646;BME280;7922;43.622;1.476;2023-05-24T03:22:54;99958.13;;;15.74;91.90
15646;BME280;7922;43.622;1.476;2023-05-24T03:25:19;99927.13;;;15.57;92.02
15646;BME280;7922;43.622;1.476;2023-05-24T03:27:44;99982.44;;;15.83;92.13
15646;BME280;7922;43.622;1.476;2023-05-24T03:30:10;100095.97;;;16.46;92.47
15646;BME280;7922;43.622;1.476;2023-05-24T03:32:35;100040.72;;;16.05;92.89
15646;BME280;7922;43.622;1.476;2023-05-24T03:35:01;99971.50;;;15.74;92.88
15646;BME280;7922;43.622;1.476;2023-05-24T03:37:26;99975.22;;;15.71;92.59
15646;BME280;7922;43.622;1.476;2023-05-24T03:39:51;100034.22;;;16.09;92.98
15646;BME280;7922;43.622;1.476;2023-05-24T03:42:16;99971.38;;;15.75;92.75
15646;BME280;7922;43.622;1.476;2023-05-24T03:44:42;100033.44;;;16.07;92.88
15646;BME280;7922;43.622;1.476;2023-05-24T03:47:07;99921.63;;;15.46;92.79
15646;BME280;7922;43.622;1.476;2023-05-24T03:49:32;99929.63;;;15.46;93.14
15646;BME280;7922;43.622;1.476;2023-05-24T03:51:58;100063.00;;;16.19;93.46
15646;BME280;7922;43.622;1.476;2023-05-24T03:54:23;100046.72;;;16.09;93.36
15646;BME280;7922;43.622;1.476;2023-05-24T03:56:48;100049.16;;;16.12;93.38
15646;BME280;7922;43.622;1.476;2023-05-24T03:59:14;99963.28;;;15.48;93.98
15646;BME280;7922;43.622;1.476;2023-05-24T04:01:39;99952.03;;;15.43;93.77
15646;BME280;7922;43.622;1.476;2023-05-24T04:04:04;99752.56;;;14.19;93.62
15646;BME280;7922;43.622;1.476;2023-05-24T04:06:29;99972.94;;;15.51;94.18
15646;BME280;7922;43.622;1.476;2023-05-24T04:08:57;100061.81;;;15.96;94.53
15646;BME280;7922;43.622;1.476;2023-05-24T04:11:23;99999.69;;;15.63;94.39
15646;BME280;7922;43.622;1.476;2023-05-24T04:13:48;100042.94;;;15.84;94.50
15646;BME280;7922;43.622;1.476;2023-05-24T04:16:14;100026.72;;;15.87;94.62
15646;BME280;7922;43.622;1.476;2023-05-24T04:18:39;99958.91;;;15.33;95.18
15646;BME280;7922;43.622;1.476;2023-05-24T04:21:04;99950.31;;;15.28;94.66
15646;BME280;7922;43.622;1.476;2023-05-24T04:23:30;99952.81;;;15.31;94.56
15646;BME280;7922;43.622;1.476;2023-05-24T04:25:55;100052.84;;;15.82;94.70
15646;BME280;7922;43.622;1.476;2023-05-24T04:28:20;100080.63;;;15.94;95.12
15646;BME280;7922;43.622;1.476;2023-05-24T04:30:45;100105.94;;;16.16;94.87
15646;BME280;7922;43.622;1.476;2023-05-24T04:33:12;100059.13;;;15.96;94.63
15646;BME280;7922;43.622;1.476;2023-05-24T04:35:37;99898.69;;;15.00;94.51
15646;BME280;7922;43.622;1.476;2023-05-24T04:38:03;100085.91;;;16.08;94.54
15646;BME280;7922;43.622;1.476;2023-05-24T04:40:28;100015.56;;;15.67;94.58
15646;BME280;7922;43.622;1.476;2023-05-24T04:42:53;100081.81;;;16.17;94.20
15646;BME280;7922;43.622;1.476;2023-05-24T04:45:18;100086.84;;;16.22;93.97
15646;BME280;7922;43.622;1.476;2023-05-24T04:47:44;100069.66;;;16.26;93.42
15646;BME280;7922;43.622;1.476;2023-05-24T04:50:09;100066.06;;;16.27;93.18
15646;BME280;7922;43.622;1.476;2023-05-24T04:52:34;100050.59;;;16.18;93.11
15646;BME280;7922;43.622;1.476;2023-05-24T04:55:00;99964.13;;;15.63;92.76
15646;BME280;7922;43.622;1.476;2023-05-24T04:57:25;99972.84;;;15.67;92.86
15646;BME280;7922;43.622;1.476;2023-05-24T04:59:50;99995.16;;;15.80;92.67
15646;BME280;7922;43.622;1.476;2023-05-24T05:02:15;100046.09;;;16.18;92.30
15646;BME280;7922;43.622;1.476;2023-05-24T05:04:41;100044.78;;;16.11;92.09
15646;BME280;7922;43.622;1.476;2023-05-24T05:07:06;99968.03;;;15.72;91.86
15646;BME280;7922;43.622;1.476;2023-05-24T05:09:31;100066.06;;;16.27;92.28
15646;BME280;7922;43.622;1.476;2023-05-24T05:11:57;100106.66;;;16.46;92.00
15646;BME280;7922;43.622;1.476;2023-05-24T05:14:22;100085.63;;;16.27;91.89
15646;BME280;7922;43.622;1.476;2023-05-24T05:16:47;100092.66;;;16.28;92.43
15646;BME280;7922;43.622;1.476;2023-05-24T05:19:13;100064.34;;;16.11;92.29
15646;BME280;7922;43.622;1.476;2023-05-24T05:21:38;99999.41;;;15.82;91.88
15646;BME280;7922;43.622;1.476;2023-05-24T05:24:03;100098.31;;;16.24;92.07
15646;BME280;7922;43.622;1.476;2023-05-24T05:26:29;100061.63;;;15.84;92.98
15646;BME280;7922;43.622;1.476;2023-05-24T05:28:55;100086.84;;;16.22;93.13
15646;BME280;7922;43.622;1.476;2023-05-24T05:31:21;99988.53;;;15.85;92.06
15646;BME280;7922;43.622;1.476;2023-05-24T05:33:47;100090.34;;;16.36;92.03
15646;BME280;7922;43.622;1.476;2023-05-24T05:36:12;100002.38;;;15.78;92.45
15646;BME280;7922;43.622;1.476;2023-05-24T05:38:37;100092.66;;;16.28;92.67
15646;BME280;7922;43.622;1.476;2023-05-24T05:41:02;99987.69;;;15.56;92.90
15646;BME280;7922;43.622;1.476;2023-05-24T05:43:28;100057.81;;;15.88;93.27
15646;BME280;7922;43.622;1.476;2023-05-24T05:45:54;100067.53;;;15.89;93.46
15646;BME280;7922;43.622;1.476;2023-05-24T05:48:19;100107.09;;;16.11;93.69
15646;BME280;7922;43.622;1.476;2023-05-24T05:50:44;100057.63;;;15.92;92.83
15646;BME280;7922;43.622;1.476;2023-05-24T05:53:10;100092.22;;;16.07;93.24
15646;BME280;7922;43.622;1.476;2023-05-24T05:55:35;100081.34;;;15.96;93.77
15646;BME280;7922;43.622;1.476;2023-05-24T05:58:00;100089.38;;;16.10;93.51
15646;BME280;7922;43.622;1.476;2023-05-24T06:00:25;100092.28;;;16.34;92.57
15646;BME280;7922;43.622;1.476;2023-05-24T06:02:51;99761.03;;;14.40;91.62
15646;BME280;7922;43.622;1.476;2023-05-24T06:05:17;99968.03;;;15.72;91.71
15646;BME280;7922;43.622;1.476;2023-05-24T06:07:42;100087.84;;;16.48;91.30
15646;BME280;7922;43.622;1.476;2023-05-24T06:10:08;100103.75;;;16.64;90.69
15646;BME280;7922;43.622;1.476;2023-05-24T06:12:33;100149.91;;;16.94;89.92
15646;BME280;7922;43.622;1.476;2023-05-24T06:14:59;100016.19;;;15.99;90.71
15646;BME280;7922;43.622;1.476;2023-05-24T06:17:24;100008.75;;;15.89;90.81
15646;BME280;7922;43.622;1.476;2023-05-24T06:19:50;100032.47;;;16.08;90.73
15646;BME280;7922;43.622;1.476;2023-05-24T06:22:15;100019.53;;;15.88;91.06
15646;BME280;7922;43.622;1.476;2023-05-24T06:24:41;100126.63;;;16.41;91.44
15646;BME280;7922;43.622;1.476;2023-05-24T06:27:06;100141.41;;;16.60;91.76
15646;BME280;7922;43.622;1.476;2023-05-24T06:29:31;100124.50;;;16.74;90.39
15646;BME280;7922;43.622;1.476;2023-05-24T06:31:56;100126.66;;;16.82;89.03
15646;BME280;7922;43.622;1.476;2023-05-24T06:34:22;100119.81;;;16.64;89.72
15646;BME280;7922;43.622;1.476;2023-05-24T06:36:47;100024.72;;;16.18;89.89
15646;BME280;7922;43.622;1.476;2023-05-24T06:39:13;100040.25;;;16.26;89.60
15646;BME280;7922;43.622;1.476;2023-05-24T06:41:39;100133.84;;;16.94;88.87
15646;BME280;7922;43.622;1.476;2023-05-24T06:44:04;100022.13;;;16.31;88.61
15646;BME280;7922;43.622;1.476;2023-05-24T06:46:30;100067.56;;;16.31;89.83
15646;BME280;7922;43.622;1.476;2023-05-24T06:48:55;100144.38;;;16.56;90.96
15646;BME280;7922;43.622;1.476;2023-05-24T06:51:20;100109.00;;;16.24;91.40
15646;BME280;7922;43.622;1.476;2023-05-24T06:53:46;100119.94;;;16.48;91.43
15646;BME280;7922;43.622;1.476;2023-05-24T06:56:11;100110.34;;;16.58;90.15
15646;BME280;7922;43.622;1.476;2023-05-24T06:58:36;100048.88;;;16.17;90.40
15646;BME280;7922;43.622;1.476;2023-05-24T07:01:02;100179.63;;;17.04;90.43
15646;BME280;7922;43.622;1.476;2023-05-24T07:03:27;100128.56;;;16.39;90.74
15646;BME280;7922;43.622;1.476;2023-05-24T07:05:52;100137.31;;;16.41;91.76
15646;BME280;7922;43.622;1.476;2023-05-24T07:08:18;100170.72;;;16.76;91.29
15646;BME280;7922;43.622;1.476;2023-05-24T07:10:43;100109.22;;;16.48;91.29
15646;BME280;7922;43.622;1.476;2023-05-24T07:13:08;100109.09;;;16.64;90.24
15646;BME280;7922;43.622;1.476;2023-05-24T07:15:33;100164.25;;;16.93;90.12
15646;BME280;7922;43.622;1.476;2023-05-24T07:17:59;100130.66;;;17.02;89.59
15646;BME280;7922;43.622;1.476;2023-05-24T07:20:24;100138.03;;;17.25;88.12
15646;BME280;7922;43.622;1.476;2023-05-24T07:22:49;99987.50;;;16.42;88.02
15646;BME280;7922;43.622;1.476;2023-05-24T07:25:14;100149.69;;;17.24;88.44
15646;BME280;7922;43.622;1.476;2023-05-24T07:27:40;100110.72;;;17.46;87.45
15646;BME280;7922;43.622;1.476;2023-05-24T07:30:06;100082.13;;;17.46;85.86
15646;BME280;7922;43.622;1.476;2023-05-24T07:32:31;100112.69;;;17.82;84.92
15646;BME280;7922;43.622;1.476;2023-05-24T07:34:56;100145.25;;;18.14;84.47
15646;BME280;7922;43.622;1.476;2023-05-24T07:37:21;100115.72;;;17.77;83.73
15646;BME280;7922;43.622;1.476;2023-05-24T07:39:50;100175.78;;;18.50;82.31
15646;BME280;7922;43.622;1.476;2023-05-24T07:42:15;100127.16;;;18.05;82.79
15646;BME280;7922;43.622;1.476;2023-05-24T07:44:40;100123.28;;;17.58;84.48
15646;BME280;7922;43.622;1.476;2023-05-24T07:47:05;100058.91;;;17.47;84.02
15646;BME280;7922;43.622;1.476;2023-05-24T07:49:31;100159.41;;;18.29;83.27
15646;BME280;7922;43.622;1.476;2023-05-24T07:51:56;100091.00;;;18.23;81.97
15646;BME280;7922;43.622;1.476;2023-05-24T07:54:21;100121.13;;;18.27;81.46
15646;BME280;7922;43.622;1.476;2023-05-24T07:56:47;100117.03;;;18.58;80.45
15646;BME280;7922;43.622;1.476;2023-05-24T07:59:12;100060.47;;;18.00;80.44
15646;BME280;7922;43.622;1.476;2023-05-24T08:01:37;100142.50;;;18.52;80.01
15646;BME280;7922;43.622;1.476;2023-05-24T08:04:03;100095.34;;;17.88;81.36
15646;BME280;7922;43.622;1.476;2023-05-24T08:06:31;100164.66;;;18.18;81.95
15646;BME280;7922;43.622;1.476;2023-05-24T08:08:56;100078.91;;;17.67;82.05
15646;BME280;7922;43.622;1.476;2023-05-24T08:11:21;100188.34;;;18.37;81.80
15646;BME280;7922;43.622;1.476;2023-05-24T08:13:47;100171.91;;;18.54;81.12
15646;BME280;7922;43.622;1.476;2023-05-24T08:16:12;100196.25;;;18.51;81.82
15646;BME280;7922;43.622;1.476;2023-05-24T08:18:38;100186.09;;;18.43;81.70
15646;BME280;7922;43.622;1.476;2023-05-24T08:21:03;100068.88;;;17.83;80.89
15646;BME280;7922;43.622;1.476;2023-05-24T08:23:28;100177.94;;;18.45;80.79
15646;BME280;7922;43.622;1.476;2023-05-24T08:25:55;100146.41;;;18.36;79.49
15646;BME280;7922;43.622;1.476;2023-05-24T08:28:21;100166.97;;;18.48;80.40
15646;BME280;7922;43.622;1.476;2023-05-24T08:30:46;100158.19;;;18.46;80.39
15646;BME280;7922;43.622;1.476;2023-05-24T08:33:11;100072.63;;;17.80;81.03
15646;BME280;7922;43.622;1.476;2023-05-24T08:35:36;100119.09;;;18.18;79.92
15646;BME280;7922;43.622;1.476;2023-05-24T08:38:02;100147.09;;;18.14;80.38
15646;BME280;7922;43.622;1.476;2023-05-24T08:40:27;100179.66;;;18.46;80.94
15646;BME280;7922;43.622;1.476;2023-05-24T08:42:54;100142.59;;;18.64;79.52
15646;BME280;7922;43.622;1.476;2023-05-24T08:45:21;100187.50;;;19.10;78.72
15646;BME280;7922;43.622;1.476;2023-05-24T08:47:47;100173.81;;;18.78;78.76
15646;BME280;7922;43.622;1.476;2023-05-24T08:50:14;100194.06;;;18.69;78.84
15646;BME280;7922;43.622;1.476;2023-05-24T08:52:40;100184.34;;;18.55;79.60
15646;BME280;7922;43.622;1.476;2023-05-24T08:55:07;100113.84;;;18.03;79.65
15646;BME280;7922;43.622;1.476;2023-05-24T08:57:34;100185.09;;;18.44;80.86
15646;BME280;7922;43.622;1.476;2023-05-24T09:00:00;100162.50;;;18.36;80.26
15646;BME280;7922;43.622;1.476;2023-05-24T09:02:25;100118.16;;;17.93;80.91
15646;BME280;7922;43.622;1.476;2023-05-24T09:04:51;99970.72;;;17.44;80.53
15646;BME280;7922;43.622;1.476;2023-05-24T09:07:20;100170.59;;;18.72;79.97
15646;BME280;7922;43.622;1.476;2023-05-24T09:09:49;100097.03;;;18.01;80.26
15646;BME280;7922;43.622;1.476;2023-05-24T09:12:17;100182.34;;;18.33;80.95
15646;BME280;7922;43.622;1.476;2023-05-24T09:14:45;100180.78;;;18.67;80.43
15646;BME280;7922;43.622;1.476;2023-05-24T09:17:11;100111.88;;;18.68;78.44
15646;BME280;7922;43.622;1.476;2023-05-24T09:19:38;100174.13;;;19.56;76.34
15646;BME280;7922;43.622;1.476;2023-05-24T09:22:04;100083.59;;;19.34;74.86
15646;BME280;7922;43.622;1.476;2023-05-24T09:24:30;100049.13;;;19.17;73.23
15646;BME280;7922;43.622;1.476;2023-05-24T09:27:04;100132.59;;;19.49;73.57
15646;BME280;7922;43.622;1.476;2023-05-24T09:29:29;100163.50;;;19.19;75.71
15646;BME280;7922;43.622;1.476;2023-05-24T09:31:54;100182.91;;;19.47;75.95
15646;BME280;7922;43.622;1.476;2023-05-24T09:34:20;100154.94;;;19.85;74.61
15646;BME280;7922;43.622;1.476;2023-05-24T09:36:45;100187.31;;;19.72;74.28
15646;BME280;7922;43.622;1.476;2023-05-24T09:39:10;100179.94;;;19.63;75.43
15646;BME280;7922;43.622;1.476;2023-05-24T09:41:36;100155.31;;;19.80;74.48
15646;BME280;7922;43.622;1.476;2023-05-24T09:44:02;100214.72;;;20.00;74.50
15646;BME280;7922;43.622;1.476;2023-05-24T09:46:27;100206.44;;;19.67;74.83
15646;BME280;7922;43.622;1.476;2023-05-24T09:49:00;100139.38;;;19.31;75.09
15646;BME280;7922;43.622;1.476;2023-05-24T09:51:25;100113.81;;;19.14;75.24
15646;BME280;7922;43.622;1.476;2023-05-24T09:53:55;100089.56;;;19.27;73.68
15646;BME280;7922;43.622;1.476;2023-05-24T09:56:21;100188.59;;;20.13;71.83
15646;BME280;7922;43.622;1.476;2023-05-24T09:58:50;100165.09;;;20.04;71.27
15646;BME280;7922;43.622;1.476;2023-05-24T10:01:15;100157.53;;;20.09;70.73
15646;BME280;7922;43.622;1.476;2023-05-24T10:03:53;100143.25;;;20.08;69.88
15646;BME280;7922;43.622;1.476;2023-05-24T10:06:19;100151.28;;;20.31;69.64
15646;BME280;7922;43.622;1.476;2023-05-24T10:08:46;100124.47;;;20.40;69.25
15646;BME280;7922;43.622;1.476;2023-05-24T10:11:11;100163.03;;;20.63;69.04
15646;BME280;7922;43.622;1.476;2023-05-24T10:13:38;100129.84;;;20.74;67.78
15646;BME280;7922;43.622;1.476;2023-05-24T10:16:04;100131.44;;;20.65;68.01
15646;BME280;7922;43.622;1.476;2023-05-24T10:18:29;100205.03;;;20.98;69.33
15646;BME280;7922;43.622;1.476;2023-05-24T10:20:55;100130.13;;;20.37;68.97
15646;BME280;7922;43.622;1.476;2023-05-24T10:23:21;100223.09;;;21.30;68.47
15646;BME280;7922;43.622;1.476;2023-05-24T10:25:53;100184.59;;;20.52;69.88
15646;BME280;7922;43.622;1.476;2023-05-24T10:28:21;100116.78;;;20.58;69.08
15646;BME280;7922;43.622;1.476;2023-05-24T10:33:25;100182.50;;;20.56;68.34
15646;BME280;7922;43.622;1.476;2023-05-24T10:35:52;100180.28;;;20.61;69.71
15646;BME280;7922;43.622;1.476;2023-05-24T10:38:22;100193.69;;;21.27;66.63
15646;BME280;7922;43.622;1.476;2023-05-24T10:40:47;100166.63;;;21.39;66.79
15646;BME280;7922;43.622;1.476;2023-05-24T10:43:12;100163.06;;;21.60;64.74
15646;BME280;7922;43.622;1.476;2023-05-24T10:45:39;100149.78;;;21.47;66.30
15646;BME280;7922;43.622;1.476;2023-05-24T10:50:36;100132.75;;;20.82;68.06
15646;BME280;7922;43.622;1.476;2023-05-24T10:53:25;100208.75;;;20.86;69.67
15646;BME280;7922;43.622;1.476;2023-05-24T11:01:24;100216.25;;;20.26;73.10
15646;BME280;7922;43.622;1.476;2023-05-24T11:03:50;100126.72;;;20.02;72.03
15646;BME280;7922;43.622;1.476;2023-05-24T11:06:15;100122.91;;;20.38;69.64
15646;BME280;7922;43.622;1.476;2023-05-24T11:08:41;100183.81;;;20.39;70.13
15646;BME280;7922;43.622;1.476;2023-05-24T11:11:09;100194.84;;;20.58;69.77
15646;BME280;7922;43.622;1.476;2023-05-24T11:13:38;100177.78;;;20.80;68.87
15646;BME280;7922;43.622;1.476;2023-05-24T11:16:07;100102.22;;;20.61;67.56
15646;BME280;7922;43.622;1.476;2023-05-24T11:18:33;100119.44;;;21.02;66.47
15646;BME280;7922;43.622;1.476;2023-05-24T11:20:58;100172.81;;;21.08;67.80
15646;BME280;7922;43.622;1.476;2023-05-24T11:23:25;100216.72;;;21.63;67.48
15646;BME280;7922;43.622;1.476;2023-05-24T11:25:50;100135.91;;;21.73;66.18
15646;BME280;7922;43.622;1.476;2023-05-24T11:28:15;100083.88;;;20.87;66.82
15646;BME280;7922;43.622;1.476;2023-05-24T11:30:43;100210.94;;;21.88;66.70
15646;BME280;7922;43.622;1.476;2023-05-24T11:33:19;100127.66;;;21.32;66.76
15646;BME280;7922;43.622;1.476;2023-05-24T11:35:45;100198.38;;;21.57;67.22
15646;BME280;7922;43.622;1.476;2023-05-24T11:38:12;100169.06;;;20.99;68.64
15646;BME280;7922;43.622;1.476;2023-05-24T11:40:42;100175.22;;;21.54;67.84
15646;BME280;7922;43.622;1.476;2023-05-24T11:43:08;100173.44;;;21.44;67.05
15646;BME280;7922;43.622;1.476;2023-05-24T11:45:33;100181.91;;;21.28;68.34
15646;BME280;7922;43.622;1.476;2023-05-24T11:48:03;100174.09;;;20.92;69.62
15646;BME280;7922;43.622;1.476;2023-05-24T11:50:28;100111.25;;;20.71;69.47
15646;BME280;7922;43.622;1.476;2023-05-24T11:55:25;100124.44;;;20.85;69.47
15646;BME280;7922;43.622;1.476;2023-05-24T11:57:53;100073.31;;;20.95;68.16
15646;BME280;7922;43.622;1.476;2023-05-24T12:00:27;100199.88;;;21.18;69.01
15646;BME280;7922;43.622;1.476;2023-05-24T12:02:56;100157.66;;;20.52;69.77
15646;BME280;7922;43.622;1.476;2023-05-24T12:05:22;100182.81;;;20.85;69.54
15646;BME280;7922;43.622;1.476;2023-05-24T12:07:47;100140.03;;;20.59;69.64
15646;BME280;7922;43.622;1.476;2023-05-24T12:10:23;100159.44;;;20.85;69.56
15646;BME280;7922;43.622;1.476;2023-05-24T12:12:49;100060.84;;;19.85;71.37
15646;BME280;7922;43.622;1.476;2023-05-24T12:15:14;100154.00;;;20.19;72.01
15646;BME280;7922;43.622;1.476;2023-05-24T12:17:39;100086.25;;;19.81;72.55
15646;BME280;7922;43.622;1.476;2023-05-24T12:20:05;100124.28;;;20.10;72.46
15646;BME280;7922;43.622;1.476;2023-05-24T12:22:30;100092.19;;;19.51;74.23
15646;BME280;7922;43.622;1.476;2023-05-24T12:24:56;100011.03;;;19.12;74.46
15646;BME280;7922;43.622;1.476;2023-05-24T12:27:26;100107.75;;;19.81;74.35
15646;BME280;7922;43.622;1.476;2023-05-24T12:29:51;100126.56;;;19.69;74.55
15646;BME280;7922;43.622;1.476;2023-05-24T12:32:17;100171.31;;;19.93;74.03
15646;BME280;7922;43.622;1.476;2023-05-24T12:34:43;100128.44;;;19.91;73.75
15646;BME280;7922;43.622;1.476;2023-05-24T12:37:09;100102.78;;;19.41;75.48
15646;BME280;7922;43.622;1.476;2023-05-24T12:39:35;100163.25;;;19.93;75.87
15646;BME280;7922;43.622;1.476;2023-05-24T12:42:02;100073.34;;;19.28;75.85
15646;BME280;7922;43.622;1.476;2023-05-24T12:44:33;100075.28;;;19.26;75.75
15646;BME280;7922;43.622;1.476;2023-05-24T12:47:00;100127.91;;;19.75;75.38
15646;BME280;7922;43.622;1.476;2023-05-24T12:49:26;100133.78;;;19.69;75.51
15646;BME280;7922;43.622;1.476;2023-05-24T12:51:52;100071.41;;;19.53;75.54
15646;BME280;7922;43.622;1.476;2023-05-24T12:54:21;100142.34;;;20.08;74.71
15646;BME280;7922;43.622;1.476;2023-05-24T12:56:46;100109.97;;;19.98;74.07
15646;BME280;7922;43.622;1.476;2023-05-24T12:59:12;100080.03;;;19.80;74.07
15646;BME280;7922;43.622;1.476;2023-05-24T13:01:37;100075.13;;;19.63;74.12
15646;BME280;7922;43.622;1.476;2023-05-24T13:04:03;100138.94;;;19.94;74.59
15646;BME280;7922;43.622;1.476;2023-05-24T13:06:28;100098.38;;;20.09;73.46
15646;BME280;7922;43.622;1.476;2023-05-24T13:08:53;100112.28;;;20.14;73.92
15646;BME280;7922;43.622;1.476;2023-05-24T13:11:19;100144.19;;;20.18;74.44
15646;BME280;7922;43.622;1.476;2023-05-24T13:13:44;100051.78;;;19.86;74.07
15646;BME280;7922;43.622;1.476;2023-05-24T13:16:09;100045.09;;;19.80;74.07
15646;BME280;7922;43.622;1.476;2023-05-24T13:18:35;100054.00;;;19.81;73.20
15646;BME280;7922;43.622;1.476;2023-05-24T13:21:00;100048.22;;;20.08;72.70
15646;BME280;7922;43.622;1.476;2023-05-24T13:23:28;100058.47;;;20.25;71.28